Time;durP1;ratioP1;P1;durP2;ratioP2;P2;SDS_P1;SDS_P2;PMS_P1;PMS_P2;Temp;Humidity;BMP_temperature;BMP_pressure;BME280_temperature;BME280_humidity;BME280_pressure;Samples;Min_cycle;Max_cycle;Signal;HPM_P1;HPM_P2
2022/06/09 00:00:49;;;;;;;7.55;2.50;;;;;;;16.63;65.95;100791.38;5096246;28;20142;-70
2022/06/09 00:03:23;;;;;;;9.48;2.22;;;;;;;16.47;65.83;100768.78;5096816;28;20491;-69
2022/06/09 00:05:51;;;;;;;4.28;1.98;;;;;;;16.62;66.02;100790.56;5099971;28;20476;-70
2022/06/09 00:08:21;;;;;;;5.07;1.90;;;;;;;16.59;66.05;100789.19;5103921;28;20523;-70
2022/06/09 00:10:54;;;;;;;7.13;2.03;;;;;;;16.60;65.93;100788.13;5088899;28;20048;-70
2022/06/09 00:13:22;;;;;;;6.63;2.33;;;;;;;16.56;65.93;100792.44;5102111;28;20055;-69
2022/06/09 00:15:50;;;;;;;7.85;1.90;;;;;;;16.59;65.92;100802.75;5101701;28;20063;-70
2022/06/09 00:18:18;;;;;;;8.50;2.00;;;;;;;16.59;65.91;100810.91;5101096;28;20108;-70
2022/06/09 00:20:46;;;;;;;8.57;2.50;;;;;;;16.57;65.93;100801.41;5092071;28;20110;-71
2022/06/09 00:23:16;;;;;;;7.35;2.30;;;;;;;16.54;66.15;100802.72;5103215;28;20068;-70
2022/06/09 00:25:45;;;;;;;5.53;1.80;;;;;;;16.58;65.87;100805.75;5104305;28;20413;-70
2022/06/09 00:28:14;;;;;;;8.60;3.30;;;;;;;16.57;65.94;100804.94;5102255;28;20071;-70
2022/06/09 00:30:42;;;;;;;6.88;1.73;;;;;;;16.56;65.89;100799.75;5100585;28;20420;-70
2022/06/09 00:33:10;;;;;;;6.15;1.83;;;;;;;16.53;66.03;100803.00;5099588;28;20553;-71
2022/06/09 00:35:38;;;;;;;8.35;2.30;;;;;;;16.55;66.00;100806.25;5100045;28;20075;-70
2022/06/09 00:38:06;;;;;;;8.45;2.95;;;;;;;16.55;66.07;100807.09;5102993;28;20079;-70
2022/06/09 00:40:34;;;;;;;6.90;2.83;;;;;;;16.54;66.05;100804.63;5100921;28;20204;-70
2022/06/09 00:43:05;;;;;;;9.70;2.55;;;;;;;16.54;66.08;100807.34;5098283;28;20094;-69
2022/06/09 00:45:35;;;;;;;7.72;2.00;;;;;;;16.53;66.10;100811.97;5100206;28;20151;-69
2022/06/09 00:48:19;;;;;;;7.00;2.00;;;;;;;16.50;66.20;100812.47;5101977;28;20077;-70
2022/06/09 00:50:51;;;;;;;8.63;1.92;;;;;;;16.50;66.18;100823.31;5100317;28;20059;-69
2022/06/09 00:53:24;;;;;;;9.75;2.90;;;;;;;16.44;66.11;100807.28;5103122;28;20051;-69
2022/06/09 00:55:53;;;;;;;6.05;2.10;;;;;;;16.48;66.14;100820.06;5097763;28;20053;-69
2022/06/09 00:58:25;;;;;;;7.93;2.40;;;;;;;16.47;66.32;100817.59;5099419;28;20044;-70
2022/06/09 01:00:56;;;;;;;7.28;2.03;;;;;;;16.48;66.33;100816.53;5098477;28;21116;-70
2022/06/09 01:03:27;;;;;;;7.38;2.30;;;;;;;16.37;66.16;100802.09;5098930;28;20055;-70
2022/06/09 01:06:02;;;;;;;9.75;2.08;;;;;;;16.44;66.34;100813.53;5101429;28;20069;-71
2022/06/09 01:08:32;;;;;;;7.97;2.38;;;;;;;16.44;66.13;100812.72;5103556;28;20064;-70
2022/06/09 01:10:59;;;;;;;6.68;1.63;;;;;;;16.44;66.18;100813.53;5092761;28;20139;-71
2022/06/09 01:13:29;;;;;;;8.75;2.53;;;;;;;16.31;66.14;100791.47;5102690;28;20427;-70
2022/06/09 01:16:03;;;;;;;10.05;3.10;;;;;;;16.36;66.23;100813.19;5090270;28;20112;-70
2022/06/09 01:18:39;;;;;;;7.30;1.88;;;;;;;16.41;66.15;100822.19;5098387;28;20135;-70
2022/06/09 01:21:18;;;;;;;9.25;2.85;;;;;;;16.39;66.11;100818.91;5094885;28;20357;-70
2022/06/09 01:24:16;;;;;;;8.02;2.67;;;;;;;16.39;66.18;100824.34;5103166;28;20052;-71
2022/06/09 01:27:04;;;;;;;8.77;2.80;;;;;;;16.38;66.20;100824.59;5098489;28;20067;-69
2022/06/09 01:29:36;;;;;;;;;;;;;;;16.39;65.95;100826.22;5091336;28;20055;-69
2022/06/09 01:32:12;;;;;;;9.10;3.08;;;;;;;16.38;66.06;100827.31;5087014;28;19979;-69
2022/06/09 01:34:48;;;;;;;11.57;2.80;;;;;;;16.28;65.92;100814.50;5100626;28;20044;-69
2022/06/09 01:37:18;;;;;;;14.05;3.30;;;;;;;16.36;66.05;100837.59;5096366;28;20044;-69
2022/06/09 01:39:51;;;;;;;8.02;2.83;;;;;;;16.28;66.08;100825.34;5101310;28;20052;-70
2022/06/09 01:42:29;;;;;;;12.02;3.10;;;;;;;16.35;65.99;100838.69;5103308;28;20079;-70
2022/06/09 01:45:00;;;;;;;11.05;3.53;;;;;;;16.34;65.88;100832.44;5100458;28;20342;-70
2022/06/09 01:47:37;;;;;;;12.45;2.63;;;;;;;16.34;66.11;100843.28;5098226;28;20441;-70
2022/06/09 01:50:09;;;;;;;13.77;3.22;;;;;;;16.33;65.82;100841.66;5098517;28;20059;-70
2022/06/09 01:52:40;;;;;;;14.20;2.90;;;;;;;16.32;66.04;100845.44;5096063;28;20047;-70
2022/06/09 01:55:11;;;;;;;7.88;2.60;;;;;;;16.32;65.94;100848.16;5089497;28;20465;-70
2022/06/09 01:57:41;;;;;;;7.78;2.47;;;;;;;16.31;65.86;100845.69;5100454;28;20036;-70
2022/06/09 02:00:12;;;;;;;10.77;2.88;;;;;;;16.31;66.16;100848.41;5093331;28;20069;-70
2022/06/09 02:02:46;;;;;;;14.98;3.53;;;;;;;16.29;65.89;100845.97;5093186;28;20051;-70
2022/06/09 02:05:18;;;;;;;9.10;2.97;;;;;;;16.28;65.97;100847.84;5102869;28;20055;-70
2022/06/09 02:07:48;;;;;;;11.25;2.30;;;;;;;16.25;66.18;100844.84;5101193;28;20055;-71
2022/06/09 02:10:21;;;;;;;8.02;2.67;;;;;;;16.24;66.02;100841.31;5099161;28;20869;-70
2022/06/09 02:12:50;;;;;;;9.55;3.25;;;;;;;16.24;66.33;100845.94;5097121;28;20056;-70
2022/06/09 02:15:25;;;;;;;10.32;2.95;;;;;;;16.26;65.95;100865.47;5093740;28;20093;-70
2022/06/09 02:17:54;;;;;;;11.13;2.88;;;;;;;16.23;66.17;100857.84;5099624;28;20059;-70
2022/06/09 02:20:24;;;;;;;14.20;2.78;;;;;;;16.23;66.00;100861.38;5097307;28;20048;-70
2022/06/09 02:22:51;;;;;;;14.07;3.55;;;;;;;16.23;66.01;100863.28;5102836;28;20055;-68
2022/06/09 02:25:20;;;;;;;10.43;3.42;;;;;;;16.22;65.96;100865.16;5096011;28;20445;-70
2022/06/09 02:27:47;;;;;;;10.30;3.38;;;;;;;16.22;66.03;100869.78;5100853;28;20072;-69
2022/06/09 02:30:15;;;;;;;12.18;3.63;;;;;;;16.22;66.05;100877.91;5099747;28;20441;-69
2022/06/09 02:33:06;;;;;;;10.27;3.15;;;;;;;16.21;66.12;100881.69;5098095;28;20051;-69
2022/06/09 02:35:35;;;;;;;15.25;3.80;;;;;;;16.19;66.11;100881.13;5100085;28;20069;-69
2022/06/09 02:38:02;;;;;;;14.38;3.50;;;;;;;16.18;65.89;100877.59;5093468;28;20090;-72
2022/06/09 02:40:31;;;;;;;13.95;4.05;;;;;;;16.18;66.09;100890.34;5101307;28;20048;-71
2022/06/09 02:43:00;;;;;;;12.32;2.95;;;;;;;16.17;66.05;100881.41;5098987;28;20059;-72
2022/06/09 02:45:29;;;;;;;14.27;3.17;;;;;;;16.16;66.26;100882.47;5100399;28;20114;-72
2022/06/09 02:47:57;;;;;;;10.32;3.17;;;;;;;16.08;66.22;100877.50;5099932;28;20048;-71
2022/06/09 02:50:27;;;;;;;8.50;3.17;;;;;;;16.14;66.18;100890.03;5101228;28;20041;-71
2022/06/09 02:52:54;;;;;;;15.68;4.43;;;;;;;16.09;66.05;100884.56;5095832;28;20072;-71
2022/06/09 02:55:22;;;;;;;13.68;3.67;;;;;;;16.13;65.99;100884.88;5098158;28;20055;-71
2022/06/09 02:57:50;;;;;;;12.00;3.17;;;;;;;16.12;66.19;100897.63;5099530;28;20101;-71
2022/06/09 03:00:18;;;;;;;10.38;3.25;;;;;;;16.09;66.14;100892.72;5097488;28;20049;-71
2022/06/09 03:02:53;;;;;;;12.80;3.53;;;;;;;16.10;66.09;100901.66;5100672;28;21409;-71
2022/06/09 03:05:22;;;;;;;17.42;3.75;;;;;;;16.10;66.20;100904.38;5099550;28;20048;-71
2022/06/09 03:07:51;;;;;;;12.50;3.78;;;;;;;16.08;66.10;100904.63;5098183;28;20052;-72
2022/06/09 03:10:19;;;;;;;17.75;5.30;;;;;;;16.05;66.23;100902.44;5098579;28;20052;-71
2022/06/09 03:12:47;;;;;;;15.63;3.38;;;;;;;16.05;65.96;100907.84;5104096;28;20044;-71
2022/06/09 03:15:18;;;;;;;12.07;3.22;;;;;;;16.00;66.00;100904.28;5093143;28;20044;-71
2022/06/09 03:17:46;;;;;;;18.23;4.60;;;;;;;16.04;66.32;100918.94;5099917;28;20068;-71
2022/06/09 03:20:17;;;;;;;16.15;3.85;;;;;;;16.04;65.91;100927.09;5095471;28;20044;-71
2022/06/09 03:22:45;;;;;;;16.58;4.00;;;;;;;16.01;66.13;100923.00;5096395;28;20040;-71
2022/06/09 03:25:14;;;;;;;16.02;4.13;;;;;;;16.03;65.94;100926.25;5099795;28;20528;-71
2022/06/09 03:27:41;;;;;;;13.68;3.53;;;;;;;16.00;66.03;100929.50;5099261;28;20059;-71
2022/06/09 03:30:11;;;;;;;14.50;3.50;;;;;;;15.95;66.04;100930.25;5102483;28;20043;-71
2022/06/09 03:32:39;;;;;;;13.60;3.20;;;;;;;15.94;66.06;100928.63;5101742;28;20116;-71
2022/06/09 03:35:08;;;;;;;15.32;4.15;;;;;;;16.00;66.07;100937.63;5102546;28;20040;-71
2022/06/09 03:37:36;;;;;;;15.02;4.10;;;;;;;15.98;65.91;100942.47;5106008;28;20055;-72
2022/06/09 03:40:06;;;;;;;17.27;3.85;;;;;;;15.97;66.06;100948.97;5100157;28;20052;-72
2022/06/09 03:42:35;;;;;;;13.38;4.35;;;;;;;15.97;66.08;100959.81;5103391;28;20043;-72
2022/06/09 03:45:03;;;;;;;13.68;3.80;;;;;;;15.97;65.91;100964.41;5098210;28;20102;-71
2022/06/09 03:47:37;;;;;;;17.80;4.47;;;;;;;15.97;65.92;100967.94;5100837;28;20048;-71
2022/06/09 03:50:06;;;;;;;17.10;3.60;;;;;;;15.96;65.87;100963.59;5100573;28;20044;-71
2022/06/09 03:52:34;;;;;;;13.30;4.10;;;;;;;15.95;66.06;100964.69;5102811;28;20048;-71
2022/06/09 03:55:02;;;;;;;13.32;3.28;;;;;;;15.91;66.20;100958.13;5103547;28;20051;-72
2022/06/09 03:57:29;;;;;;;14.73;3.03;;;;;;;15.95;65.99;100972.81;5099956;28;20044;-71
2022/06/09 03:59:58;;;;;;;17.35;3.65;;;;;;;15.93;65.81;100977.66;5102138;28;20044;-71
2022/06/09 04:02:27;;;;;;;15.20;4.60;;;;;;;15.93;65.75;100980.38;5101956;28;20637;-71
2022/06/09 04:04:55;;;;;;;15.20;3.17;;;;;;;15.93;65.94;100985.78;5097072;28;20049;-71
2022/06/09 04:07:23;;;;;;;10.45;3.05;;;;;;;15.92;65.98;100986.88;5105080;28;20040;-71
2022/06/09 04:09:51;;;;;;;16.92;3.40;;;;;;;15.91;66.03;100986.06;5101828;28;20039;-71
2022/06/09 04:12:19;;;;;;;12.50;3.45;;;;;;;15.91;66.11;100993.38;5101258;28;20047;-71
2022/06/09 04:14:47;;;;;;;15.48;3.65;;;;;;;15.90;65.90;101000.69;5101146;28;20074;-72
2022/06/09 04:17:16;;;;;;;11.32;4.05;;;;;;;15.89;66.08;101004.47;5094864;28;20044;-71
2022/06/09 04:19:44;;;;;;;11.77;2.83;;;;;;;15.89;65.98;100998.22;5099440;28;20080;-72
2022/06/09 04:22:12;;;;;;;14.15;3.25;;;;;;;15.87;66.05;101001.19;5102177;28;20090;-71
2022/06/09 04:24:39;;;;;;;14.55;4.30;;;;;;;15.86;66.12;101007.69;5103485;28;20072;-71
2022/06/09 04:27:07;;;;;;;14.23;3.75;;;;;;;15.84;65.91;101003.56;5097964;28;20055;-71
2022/06/09 04:29:35;;;;;;;16.13;3.47;;;;;;;15.78;65.95;100991.84;5102586;28;20068;-71
2022/06/09 04:32:04;;;;;;;13.07;4.35;;;;;;;15.72;65.97;100995.56;5100273;28;20183;-72
2022/06/09 04:34:33;;;;;;;11.68;3.53;;;;;;;15.70;65.96;100989.59;5099529;28;20119;-71
2022/06/09 04:37:01;;;;;;;12.40;3.60;;;;;;;15.84;66.08;101006.28;5102994;28;20052;-71
2022/06/09 04:39:29;;;;;;;16.27;5.18;;;;;;;15.83;66.08;101019.03;5102951;28;20051;-70
2022/06/09 04:41:57;;;;;;;19.77;4.10;;;;;;;15.77;66.07;101021.91;5096535;28;20380;-71
2022/06/09 04:44:24;;;;;;;16.63;4.30;;;;;;;15.81;66.06;101021.16;5102986;28;20468;-70
2022/06/09 04:46:52;;;;;;;9.63;3.90;;;;;;;15.82;66.24;101030.13;5099908;28;20048;-70
2022/06/09 04:49:21;;;;;;;13.50;4.88;;;;;;;15.82;66.18;101030.13;5102105;28;20048;-70
2022/06/09 04:51:50;;;;;;;15.05;3.72;;;;;;;15.75;66.11;101027.59;5095137;28;20072;-70
2022/06/09 04:54:18;;;;;;;15.50;5.03;;;;;;;15.80;66.35;101033.06;5101614;28;20048;-70
2022/06/09 04:56:45;;;;;;;14.43;4.18;;;;;;;15.79;66.26;101039.56;5098009;28;20059;-70
2022/06/09 04:59:13;;;;;;;20.67;4.90;;;;;;;15.78;66.10;101042.53;5097257;28;20107;-70
2022/06/09 05:01:41;;;;;;;15.25;4.07;;;;;;;15.78;66.35;101039.81;5099188;28;20071;-71
2022/06/09 05:04:09;;;;;;;16.50;3.42;;;;;;;15.78;66.15;101051.47;5100309;28;20443;-71
2022/06/09 05:06:38;;;;;;;14.63;3.80;;;;;;;15.77;65.93;101057.16;5097897;28;20052;-70
2022/06/09 05:09:07;;;;;;;15.25;4.47;;;;;;;15.77;66.33;101063.38;5100393;28;20381;-72
2022/06/09 05:11:35;;;;;;;11.82;3.28;;;;;;;15.78;66.38;101069.63;5094193;28;20076;-70
2022/06/09 05:14:03;;;;;;;17.73;5.32;;;;;;;15.75;66.22;101070.94;5096477;28;20040;-70
2022/06/09 05:16:31;;;;;;;12.93;3.90;;;;;;;15.74;66.14;101063.88;5102827;28;20058;-71
2022/06/09 05:18:58;;;;;;;11.60;3.47;;;;;;;15.75;66.37;101078.25;5101939;28;20134;-72
2022/06/09 05:21:33;;;;;;;13.52;3.50;;;;;;;15.74;66.50;101080.16;5089692;28;20493;-71
2022/06/09 05:24:00;;;;;;;16.20;3.65;;;;;;;15.74;66.40;101085.56;5098059;28;20047;-73
2022/06/09 05:26:29;;;;;;;13.82;3.92;;;;;;;15.76;66.73;101090.72;5097457;28;20072;-72
2022/06/09 05:28:58;;;;;;;13.32;4.47;;;;;;;15.78;67.30;101083.19;5099411;28;20050;-72
2022/06/09 05:31:28;;;;;;;15.50;4.28;;;;;;;15.80;66.94;101100.00;5089715;28;20051;-70
2022/06/09 05:33:56;;;;;;;14.23;4.00;;;;;;;15.82;66.74;101106.81;5095008;28;20052;-72
2022/06/09 05:36:24;;;;;;;16.13;4.50;;;;;;;15.82;66.94;101112.25;5102235;28;20048;-72
2022/06/09 05:47:09;;;;;;;9.93;3.53;;;;;;;15.86;67.30;101121.50;5097764;28;20059;-71
2022/06/09 05:49:37;;;;;;;17.27;3.83;;;;;;;15.88;67.15;101123.97;5100929;28;20041;-71
2022/06/09 05:52:05;;;;;;;12.07;3.45;;;;;;;15.84;67.16;101129.06;5104206;28;20504;-72
2022/06/09 05:54:33;;;;;;;17.52;4.53;;;;;;;15.87;67.15;101125.03;5103708;28;20067;-71
2022/06/09 05:57:02;;;;;;;12.93;3.22;;;;;;;15.78;67.53;101121.13;4738650;28;10000401;-73
2022/06/09 05:59:30;;;;;;;13.00;4.25;;;;;;;15.86;67.69;101142.38;5086660;28;20117;-73
2022/06/09 06:01:57;;;;;;;21.33;5.10;;;;;;;15.79;67.82;101137.13;5095690;28;20078;-74
2022/06/09 06:04:25;;;;;;;11.98;3.25;;;;;;;15.84;67.64;101155.34;5100292;28;20051;-74
2022/06/09 06:06:53;;;;;;;21.38;3.92;;;;;;;15.84;67.80;101158.06;5095487;28;20060;-75
2022/06/09 06:09:22;;;;;;;15.20;3.58;;;;;;;15.83;67.82;101170.78;5097660;28;20426;-76
2022/06/09 06:11:51;;;;;;;12.25;4.32;;;;;;;15.83;67.81;101165.38;5100024;28;20112;-75
2022/06/09 06:14:23;;;;;;;14.20;3.88;;;;;;;15.77;67.68;101160.13;5092566;28;20082;-76
2022/06/09 06:16:51;;;;;;;18.80;3.88;;;;;;;15.83;67.85;101165.38;5098199;28;20075;-72
2022/06/09 06:19:22;;;;;;;12.30;3.75;;;;;;;15.84;67.49;101166.19;5099291;28;20043;-72
2022/06/09 06:21:51;;;;;;;16.05;4.07;;;;;;;15.79;67.84;101166.94;5092711;28;20547;-72
2022/06/09 06:24:21;;;;;;;18.05;4.20;;;;;;;15.87;68.18;101184.66;5098318;28;20085;-73
2022/06/09 06:26:49;;;;;;;10.10;3.38;;;;;;;15.89;67.78;101190.66;5099627;28;20078;-73
2022/06/09 06:29:24;;;;;;;14.00;3.58;;;;;;;15.88;68.37;101189.03;5098684;28;20055;-74
2022/06/09 06:31:53;;;;;;;16.98;4.38;;;;;;;15.89;67.79;101191.47;5098862;28;20063;-73
2022/06/09 06:34:21;;;;;;;11.27;3.13;;;;;;;15.88;68.26;101191.72;5104982;28;20514;-74
2022/06/09 06:36:49;;;;;;;12.80;3.67;;;;;;;15.89;68.11;101198.78;5090740;28;20572;-73
2022/06/09 06:39:17;;;;;;;20.80;4.45;;;;;;;15.90;68.41;101203.16;5100176;28;20059;-74
2022/06/09 06:41:45;;;;;;;14.00;3.85;;;;;;;15.89;68.41;101210.47;5097424;28;20364;-73
2022/06/09 06:44:13;;;;;;;14.80;4.22;;;;;;;15.89;68.44;101207.75;5096086;28;20059;-71
2022/06/09 06:46:42;;;;;;;11.30;4.13;;;;;;;15.91;68.31;101205.59;5093364;28;20139;-70
2022/06/09 06:49:10;;;;;;;13.73;4.82;;;;;;;15.91;68.48;101210.22;5094426;28;20052;-71
2022/06/09 06:51:38;;;;;;;13.50;3.63;;;;;;;15.78;68.35;101188.88;5096940;28;20044;-66
2022/06/09 06:54:06;;;;;;;14.52;3.60;;;;;;;15.92;68.24;101225.41;5096410;28;20052;-65
2022/06/09 06:56:35;;;;;;;15.38;3.83;;;;;;;15.92;68.61;101222.69;5094080;28;20040;-69
2022/06/09 06:59:03;;;;;;;12.65;3.42;;;;;;;15.92;68.53;101231.66;5100935;28;20048;-68
2022/06/09 07:01:31;;;;;;;12.80;3.75;;;;;;;15.93;68.77;101229.75;5097399;28;20048;-70
2022/06/09 07:04:01;;;;;;;9.63;3.38;;;;;;;15.94;68.68;101225.97;5101978;28;20564;-68
2022/06/09 07:06:29;;;;;;;13.48;3.78;;;;;;;15.94;68.42;101231.41;5105763;28;20515;-66
2022/06/09 07:08:57;;;;;;;9.27;3.40;;;;;;;15.93;68.67;101229.75;5101530;28;20043;-64
2022/06/09 07:11:24;;;;;;;12.65;3.63;;;;;;;15.93;68.56;101235.19;5104219;28;20044;-65
2022/06/09 07:13:52;;;;;;;17.42;3.70;;;;;;;15.95;68.69;101243.88;5105422;28;20174;-64
2022/06/09 07:16:20;;;;;;;12.90;3.08;;;;;;;15.94;68.55;101248.47;5105138;28;20047;-63
2022/06/09 07:19:09;;;;;;;11.48;3.30;;;;;;;15.94;68.50;101253.91;5102394;28;20082;-68
2022/06/09 07:21:37;;;;;;;13.90;3.42;;;;;;;15.95;68.56;101265.56;5103429;28;20408;-67
2022/06/09 07:24:05;;;;;;;10.63;2.97;;;;;;;15.96;68.48;101267.22;5104069;28;20060;-67
2022/06/09 07:26:33;;;;;;;10.15;2.67;;;;;;;15.96;68.56;101264.50;5104718;28;20090;-67
2022/06/09 07:29:01;;;;;;;8.75;2.22;;;;;;;15.95;68.35;101266.41;5102062;28;20098;-67
2022/06/09 07:31:29;;;;;;;14.75;3.05;;;;;;;15.78;68.31;101243.91;5102468;28;20527;-67
2022/06/09 07:33:57;;;;;;;12.27;2.85;;;;;;;15.86;68.45;101258.91;5100304;28;20047;-68
2022/06/09 07:36:28;;;;;;;12.45;3.42;;;;;;;15.98;68.46;101275.91;5104226;28;20047;-67
2022/06/09 07:38:55;;;;;;;9.93;2.72;;;;;;;15.99;68.32;101272.13;5100417;28;20048;-68
2022/06/09 07:41:23;;;;;;;10.73;2.72;;;;;;;16.01;68.59;101274.59;5101311;28;20068;-67
2022/06/09 07:43:58;;;;;;;9.90;2.70;;;;;;;16.00;68.57;101276.50;5103631;28;20048;-68
2022/06/09 07:46:26;;;;;;;12.18;2.47;;;;;;;16.02;68.58;101276.25;5103293;28;20059;-71
2022/06/09 07:48:54;;;;;;;7.60;2.45;;;;;;;16.14;68.54;101277.81;5103807;28;20048;-71
2022/06/09 07:51:22;;;;;;;6.40;2.28;;;;;;;16.13;68.20;101278.88;5102679;28;20040;-72
2022/06/09 07:53:52;;;;;;;9.07;2.70;;;;;;;16.10;68.04;101273.13;5104635;28;20086;-71
2022/06/09 07:56:20;;;;;;;9.05;2.53;;;;;;;16.12;68.09;101290.78;5102486;28;20083;-71
2022/06/09 07:58:48;;;;;;;6.05;2.42;;;;;;;16.20;68.45;101290.38;5101788;28;20056;-70
2022/06/09 08:01:18;;;;;;;13.52;3.13;;;;;;;16.16;68.22;101286.50;5102515;28;20420;-73
2022/06/09 08:03:47;;;;;;;8.55;2.75;;;;;;;16.12;68.15;101285.38;5103383;28;20147;-70
2022/06/09 08:06:16;;;;;;;9.65;2.70;;;;;;;16.14;68.22;101296.78;5100061;28;20170;-69
2022/06/09 08:08:57;;;;;;;11.63;2.70;;;;;;;16.14;68.16;101296.78;5100407;28;20068;-70
2022/06/09 08:11:27;;;;;;;8.70;1.92;;;;;;;16.13;68.17;101295.13;5101268;28;20044;-72
2022/06/09 08:13:56;;;;;;;6.07;2.35;;;;;;;16.12;68.39;101301.63;5101423;28;20105;-72
2022/06/09 08:16:24;;;;;;;8.90;2.28;;;;;;;16.12;68.35;101317.91;5103913;28;20070;-69
2022/06/09 08:18:54;;;;;;;7.80;2.17;;;;;;;16.06;68.54;101307.22;5103214;28;20051;-69
2022/06/09 08:21:22;;;;;;;8.40;2.33;;;;;;;16.15;68.34;101322.84;5101460;28;20151;-68
2022/06/09 08:24:10;;;;;;;8.93;2.10;;;;;;;16.15;68.33;101308.44;5098919;28;20051;-69
2022/06/09 08:26:38;;;;;;;8.95;2.40;;;;;;;16.21;68.20;101319.13;5100641;28;20044;-68
2022/06/09 08:29:06;;;;;;;5.68;2.20;;;;;;;16.20;68.33;101333.75;5103467;28;20510;-69
2022/06/09 08:31:34;;;;;;;7.30;2.50;;;;;;;16.19;68.11;101320.44;5101304;28;20043;-68
2022/06/09 08:34:02;;;;;;;6.43;1.50;;;;;;;16.25;68.00;101328.41;5102303;28;20116;-69
2022/06/09 08:36:30;;;;;;;6.05;1.90;;;;;;;16.23;68.05;101324.31;5102887;28;20052;-70
2022/06/09 08:38:58;;;;;;;6.55;1.70;;;;;;;16.27;68.03;101328.16;5098578;28;20094;-70
2022/06/09 08:41:36;;;;;;;3.28;1.65;;;;;;;16.39;68.13;101339.75;5100157;28;20048;-69
2022/06/09 08:44:16;;;;;;;8.52;2.30;;;;;;;16.34;67.83;101341.56;5101015;28;20052;-70
2022/06/09 08:46:50;;;;;;;5.65;1.73;;;;;;;16.27;68.11;101330.88;5100269;28;20040;-69
2022/06/09 08:49:30;;;;;;;4.28;1.88;;;;;;;16.33;67.87;101350.78;5099686;28;20645;-69
2022/06/09 08:52:02;;;;;;;7.03;1.40;;;;;;;16.32;67.81;101351.84;5098076;28;20043;-70
2022/06/09 08:54:34;;;;;;;5.28;1.50;;;;;;;16.32;67.53;101357.25;5103025;28;20047;-70
2022/06/09 08:57:12;;;;;;;8.73;1.73;;;;;;;16.30;67.50;101354.78;5099794;28;20070;-69
2022/06/09 08:59:42;;;;;;;3.83;1.55;;;;;;;16.31;67.58;101359.16;5100777;28;20052;-71
2022/06/09 09:02:21;;;;;;;5.47;1.67;;;;;;;16.31;67.58;101353.72;5101663;28;20047;-71
2022/06/09 09:05:00;;;;;;;5.93;2.08;;;;;;;16.32;67.61;101355.38;5100572;28;20048;-72
2022/06/09 09:07:31;;;;;;;5.97;1.80;;;;;;;16.29;67.56;101350.44;5102313;28;20063;-72
2022/06/09 09:10:07;;;;;;;6.70;1.58;;;;;;;16.35;67.47;101359.47;5098965;28;20945;-72
2022/06/09 09:12:45;;;;;;;4.22;1.33;;;;;;;16.37;67.53;101362.75;5099481;28;20062;-72
2022/06/09 09:15:17;;;;;;;2.45;1.40;;;;;;;16.39;67.60;101368.78;5101013;28;20392;-72
2022/06/09 09:17:52;;;;;;;5.03;1.92;;;;;;;16.40;67.62;101367.69;5100876;28;20219;-73
2022/06/09 09:20:26;;;;;;;5.88;2.40;;;;;;;16.43;67.48;101372.63;5101476;28;20063;-71
2022/06/09 09:23:09;;;;;;;10.40;1.60;;;;;;;16.41;67.27;101367.44;5099815;28;20051;-73
2022/06/09 09:25:44;;;;;;;6.68;1.55;;;;;;;16.43;67.22;101373.44;5097957;28;20071;-72
2022/06/09 09:28:19;;;;;;;8.65;2.15;;;;;;;16.44;67.21;101376.97;5097491;28;20040;-73
2022/06/09 09:31:00;;;;;;;7.15;1.90;;;;;;;16.46;67.12;101383.00;5100324;28;20118;-72
2022/06/09 09:33:30;;;;;;;5.35;1.63;;;;;;;16.47;67.18;101381.91;5095976;28;20044;-71
2022/06/09 09:36:03;;;;;;;4.85;2.22;;;;;;;16.41;67.11;101374.78;5102029;28;20386;-72
2022/06/09 09:38:36;;;;;;;5.00;1.50;;;;;;;16.50;67.08;101384.97;5097879;28;20052;-71
2022/06/09 09:41:04;;;;;;;4.38;1.80;;;;;;;16.54;67.21;101385.28;5098068;28;20047;-72
2022/06/09 09:43:40;;;;;;;4.30;2.25;;;;;;;16.53;67.13;101389.88;5098859;28;20048;-70
2022/06/09 09:46:26;;;;;;;7.45;2.53;;;;;;;16.50;66.62;101376.81;5099703;28;20044;-71
2022/06/09 09:48:58;;;;;;;5.93;2.17;;;;;;;16.59;66.75;101399.75;5096096;28;20044;-69
2022/06/09 09:51:36;;;;;;;7.10;2.83;;;;;;;16.59;66.70;101398.94;5098975;28;20047;-73
2022/06/09 09:54:17;;;;;;;8.88;2.78;;;;;;;16.59;66.59;101396.22;5099752;28;20131;-70
2022/06/09 09:56:45;;;;;;;7.65;2.53;;;;;;;16.55;66.65;101390.47;5101858;28;20048;-70
2022/06/09 09:59:26;;;;;;;8.55;4.10;;;;;;;16.60;66.67;101395.97;5094872;28;20100;-70
2022/06/09 10:10:57;;;;;;;14.57;5.50;;;;;;;16.65;66.73;101403.41;5098635;28;20108;-70
2022/06/09 10:13:42;;;;;;;9.90;3.58;;;;;;;16.66;66.95;101407.75;5102627;28;20046;-70
2022/06/09 10:16:33;;;;;;;17.30;4.82;;;;;;;16.68;66.71;101416.47;5100307;28;20132;-70
2022/06/09 10:19:22;;;;;;;8.68;3.70;;;;;;;16.66;66.74;101413.19;5100269;28;20327;-68
2022/06/09 10:22:15;;;;;;;7.78;3.90;;;;;;;16.56;66.80;101394.81;5090116;28;20059;-70
2022/06/09 10:24:50;;;;;;;12.15;2.80;;;;;;;16.72;66.60;101419.50;5099376;28;20074;-70
2022/06/09 10:27:23;;;;;;;5.85;3.33;;;;;;;16.74;66.70;101433.66;5101608;28;20604;-69
2022/06/09 10:29:58;;;;;;;7.68;2.80;;;;;;;16.70;66.74;101429.78;5100980;28;20040;-71
2022/06/09 10:32:32;;;;;;;7.20;3.88;;;;;;;16.74;66.50;101436.38;5097911;28;20098;-70
2022/06/09 10:35:06;;;;;;;10.90;3.58;;;;;;;16.75;66.32;101444.25;5101120;28;20052;-70
2022/06/09 10:37:41;;;;;;;7.90;3.67;;;;;;;16.77;66.82;101449.44;5094771;28;20048;-70
2022/06/09 10:40:16;;;;;;;7.18;3.13;;;;;;;16.76;66.61;101454.06;5093617;28;20052;-71
2022/06/09 10:42:50;;;;;;;8.27;3.25;;;;;;;16.77;66.73;101461.13;5095613;28;20151;-71
2022/06/09 10:45:24;;;;;;;7.07;3.75;;;;;;;16.76;66.80;101461.38;5093301;28;20056;-71
2022/06/09 10:56:53;;;;;;;5.85;3.03;;;;;;;16.79;67.40;101478.00;4998917;28;20082;-71
2022/06/09 10:59:28;;;;;;;7.47;2.97;;;;;;;16.80;67.39;101476.09;4998459;28;20125;-70
2022/06/09 11:01:56;;;;;;;7.80;3.17;;;;;;;16.79;67.28;101486.13;4998979;28;20050;-70
2022/06/09 11:04:32;;;;;;;5.50;2.50;;;;;;;16.80;67.39;101490.50;4997618;28;20070;-70
2022/06/09 11:07:22;;;;;;;5.50;2.42;;;;;;;16.82;67.28;101488.34;4989326;28;20047;-69
2022/06/09 11:10:06;;;;;;;6.95;2.63;;;;;;;16.82;67.20;101499.22;4989635;28;20055;-70
2022/06/09 11:12:56;;;;;;;7.10;2.85;;;;;;;16.83;67.13;101489.16;4991876;28;20054;-69
2022/06/09 11:15:33;;;;;;;6.90;2.35;;;;;;;16.80;67.15;101487.78;4998320;28;20057;-70
2022/06/09 11:18:19;;;;;;;5.15;2.40;;;;;;;16.89;67.26;101491.72;4992887;28;20047;-69
2022/06/09 11:21:08;;;;;;;5.65;2.20;;;;;;;16.89;67.32;101502.59;4994249;28;20054;-70
2022/06/09 11:23:53;;;;;;;5.13;2.60;;;;;;;16.89;67.34;101510.72;4997468;28;20113;-70
2022/06/09 11:26:31;;;;;;;8.18;2.40;;;;;;;16.91;67.64;101502.34;4993644;28;20460;-70
2022/06/09 11:29:08;;;;;;;4.75;2.45;;;;;;;16.93;67.67;101500.19;5094348;28;20075;-70
2022/06/09 11:31:41;;;;;;;;;;;;;;;16.92;67.78;101501.25;5099509;28;20052;-70
2022/06/09 11:34:25;;;;;;;6.55;2.50;;;;;;;16.91;67.71;101508.59;5093661;28;19931;-70
2022/06/09 11:37:04;;;;;;;6.10;2.40;;;;;;;16.86;67.41;101503.06;5100877;28;20581;-69
2022/06/09 11:39:50;;;;;;;5.72;2.53;;;;;;;16.83;67.46;101505.47;5097973;28;20096;-70
2022/06/09 11:42:27;;;;;;;5.13;2.25;;;;;;;16.88;67.52;101525.38;5091507;28;20071;-70
2022/06/09 11:44:58;;;;;;;4.50;2.22;;;;;;;16.88;67.45;101524.56;5100384;28;20071;-70
2022/06/09 11:47:31;;;;;;;4.25;2.13;;;;;;;16.83;67.49;101522.56;5091109;28;20067;-68
2022/06/09 11:50:02;;;;;;;5.57;1.92;;;;;;;16.85;67.52;101539.44;5105617;28;20082;-70
2022/06/09 11:52:39;;;;;;;4.43;2.03;;;;;;;16.82;67.64;101536.41;5097880;28;20052;-70
2022/06/09 11:55:25;;;;;;;6.10;2.00;;;;;;;16.87;67.57;101550.06;5104727;28;20075;-70
2022/06/09 11:57:53;;;;;;;3.63;1.75;;;;;;;16.86;67.50;101549.22;5104975;28;20067;-70
2022/06/09 12:00:40;;;;;;;7.32;3.10;;;;;;;16.86;67.61;101551.94;5103386;28;20120;-70
2022/06/09 12:03:32;;;;;;;5.30;2.10;;;;;;;16.87;67.87;101559.03;5097399;28;20075;-70
2022/06/09 12:06:05;;;;;;;5.70;2.22;;;;;;;16.87;67.60;101558.19;5104783;28;20052;-70
2022/06/09 12:08:42;;;;;;;4.65;1.65;;;;;;;16.87;67.80;101559.03;5103995;28;20051;-70